Time;durP1;ratioP1;P1;durP2;ratioP2;P2;SDS_P1;SDS_P2;PMS_P1;PMS_P2;Temp;Humidity;BMP_temperature;BMP_pressure;BME280_temperature;BME280_humidity;BME280_pressure;Samples;Min_cycle;Max_cycle;Signal;HPM_P1;HPM_P2
2022/05/31 00:02:11;;;;;;;0.10;0.10;;;6.80;99.90;;;;;;5016858;28;20042;-85
2022/05/31 00:04:37;;;;;;;0.10;0.10;;;6.80;99.90;;;;;;5033294;28;20048;-85
2022/05/31 00:07:04;;;;;;;0.20;0.20;;;6.70;99.90;;;;;;5000482;28;20042;-85
2022/05/31 00:09:30;;;;;;;0.00;0.00;;;6.70;99.90;;;;;;5016893;28;20037;-85
2022/05/31 00:11:57;;;;;;;0.10;0.10;;;6.60;99.90;;;;;;5016875;28;20037;-85
2022/05/31 00:14:24;;;;;;;0.10;0.10;;;6.60;99.90;;;;;;5033367;28;20053;-85
2022/05/31 00:16:50;;;;;;;0.10;0.10;;;6.60;99.90;;;;;;5017407;28;20041;-85
2022/05/31 00:19:17;;;;;;;0.10;0.10;;;6.60;99.90;;;;;;5033119;28;20041;-85
2022/05/31 00:21:46;;;;;;;0.10;0.10;;;6.60;99.90;;;;;;5000444;28;20045;-85
2022/05/31 00:24:16;;;;;;;0.10;0.10;;;6.60;99.90;;;;;;5016548;28;20077;-85
2022/05/31 00:26:42;;;;;;;0.10;0.10;;;6.60;99.90;;;;;;5016652;28;20056;-85
2022/05/31 00:29:09;;;;;;;0.10;0.10;;;6.60;99.90;;;;;;5000018;28;20520;-85
2022/05/31 00:31:39;;;;;;;0.10;0.10;;;6.60;99.90;;;;;;5017052;28;20084;-85
2022/05/31 00:34:04;;;;;;;0.22;0.22;;;6.90;99.90;;;;;;5000432;28;20041;-85
2022/05/31 00:36:31;;;;;;;0.00;0.00;;;7.00;99.90;;;;;;5033085;28;20103;-84
2022/05/31 00:38:57;;;;;;;0.00;0.00;;;7.10;99.90;;;;;;5000172;28;20077;-84
2022/05/31 00:41:23;;;;;;;0.00;0.00;;;6.60;99.90;;;;;;4999856;28;20041;-84
2022/05/31 00:43:57;;;;;;;0.10;0.10;;;6.50;99.90;;;;;;4983794;28;20103;-85
2022/05/31 00:46:33;;;;;;;0.00;0.00;;;7.30;99.90;;;;;;5033087;28;20042;-89
2022/05/31 00:49:05;;;;;;;0.10;0.10;;;6.50;99.90;;;;;;5000203;28;20436;-89
2022/05/31 00:51:41;;;;;;;0.20;0.20;;;6.40;99.90;;;;;;5032184;28;20119;-89
2022/05/31 00:54:14;;;;;;;0.10;0.10;;;6.40;99.90;;;;;;5016318;28;20461;-89
2022/05/31 00:56:41;;;;;;;0.20;0.20;;;6.30;99.90;;;;;;5016056;28;20548;-88
2022/05/31 00:59:15;;;;;;;0.10;0.10;;;6.30;99.90;;;;;;5016302;28;20049;-88
2022/05/31 01:01:43;;;;;;;0.05;0.05;;;6.30;99.90;;;;;;5015807;28;20045;-89
2022/05/31 01:04:10;;;;;;;0.10;0.10;;;6.20;99.90;;;;;;5032419;28;20095;-89
2022/05/31 01:06:36;;;;;;;0.10;0.10;;;6.30;99.90;;;;;;4983627;28;20034;-89
2022/05/31 01:09:03;;;;;;;0.10;0.10;;;6.20;99.90;;;;;;5015929;28;20041;-89
2022/05/31 01:11:34;;;;;;;0.00;0.00;;;6.20;99.90;;;;;;5031511;28;20510;-89
2022/05/31 01:14:00;;;;;;;0.10;0.10;;;6.40;99.90;;;;;;5015545;28;20564;-89
2022/05/31 01:16:26;;;;;;;0.10;0.10;;;7.30;99.90;;;;;;5015852;28;20124;-89
2022/05/31 01:18:52;;;;;;;0.10;0.10;;;6.10;99.90;;;;;;5032138;28;20034;-85
2022/05/31 01:21:18;;;;;;;0.00;0.00;;;6.20;99.90;;;;;;5032851;28;20033;-85
2022/05/31 01:23:57;;;;;;;0.10;0.10;;;6.20;99.90;;;;;;4999555;28;20121;-85
2022/05/31 01:26:47;;;;;;;0.08;0.08;;;6.70;99.90;;;;;;5033223;28;20037;-84
2022/05/31 01:29:32;;;;;;;0.20;0.20;;;6.10;99.90;;;;;;5016314;28;20042;-85
2022/05/31 01:32:00;;;;;;;0.10;0.10;;;6.10;99.90;;;;;;5032857;28;20048;-85
2022/05/31 01:35:00;;;;;;;0.10;0.10;;;6.10;99.90;;;;;;5032108;28;20525;-85
2022/05/31 01:37:38;;;;;;;0.10;0.10;;;6.10;99.90;;;;;;4999323;28;20049;-85
2022/05/31 01:40:11;;;;;;;0.60;0.30;;;6.10;99.90;;;;;;5015890;28;20049;-85
2022/05/31 01:42:46;;;;;;;0.00;0.00;;;6.10;99.90;;;;;;5015154;28;20049;-85
2022/05/31 01:45:31;;;;;;;0.10;0.10;;;6.10;99.90;;;;;;5015216;28;20116;-85
2022/05/31 01:48:01;;;;;;;0.10;0.10;;;6.00;99.90;;;;;;4999447;28;20115;-85
2022/05/31 01:50:27;;;;;;;0.00;0.00;;;6.10;99.90;;;;;;5012049;28;20455;-85
2022/05/31 01:52:53;;;;;;;0.00;0.00;;;6.00;99.90;;;;;;5001363;28;20408;-85
2022/05/31 01:55:21;;;;;;;0.10;0.10;;;6.80;99.90;;;;;;5028614;28;20483;-85
2022/05/31 01:57:52;;;;;;;0.10;0.10;;;6.10;99.90;;;;;;4995685;28;20626;-85
2022/05/31 02:00:18;;;;;;;0.00;0.00;;;6.40;99.90;;;;;;5028475;28;20046;-85
2022/05/31 02:02:49;;;;;;;0.10;0.10;;;6.20;99.90;;;;;;4995666;28;20129;-86
2022/05/31 02:05:16;;;;;;;0.10;0.10;;;6.30;99.90;;;;;;5028563;28;20042;-85
2022/05/31 02:07:42;;;;;;;0.10;0.10;;;6.40;99.90;;;;;;5012314;28;20484;-85
2022/05/31 02:10:08;;;;;;;0.15;0.15;;;6.60;99.90;;;;;;4979627;28;20042;-90
2022/05/31 02:12:34;;;;;;;0.00;0.00;;;6.60;99.90;;;;;;4979626;28;20523;-89
2022/05/31 02:15:00;;;;;;;0.10;0.10;;;6.90;99.90;;;;;;5011546;28;20057;-89
2022/05/31 02:17:25;;;;;;;0.00;0.00;;;6.70;99.90;;;;;;5012092;28;20038;-89
2022/05/31 02:19:51;;;;;;;0.30;0.30;;;6.80;99.90;;;;;;5011945;28;20042;-89
2022/05/31 02:22:20;;;;;;;0.10;0.10;;;6.90;99.90;;;;;;4996897;28;20045;-90
2022/05/31 02:24:45;;;;;;;0.10;0.10;;;7.10;99.90;;;;;;4982656;28;20061;-89
2022/05/31 02:27:12;;;;;;;0.05;0.05;;;8.10;99.90;;;;;;4999380;28;20476;-90
2022/05/31 02:29:39;;;;;;;0.00;0.00;;;7.30;99.90;;;;;;5032144;28;20048;-90
2022/05/31 02:32:08;;;;;;;0.00;0.00;;;7.20;99.90;;;;;;5015752;28;20038;-90
2022/05/31 02:34:38;;;;;;;0.10;0.10;;;7.20;99.90;;;;;;4998870;28;20042;-90
2022/05/31 02:37:04;;;;;;;0.10;0.10;;;7.80;99.90;;;;;;5031926;28;20057;-90
2022/05/31 02:39:30;;;;;;;0.00;0.00;;;7.30;99.90;;;;;;4998960;28;20052;-89
2022/05/31 02:41:56;;;;;;;0.40;0.40;;;7.30;99.90;;;;;;5015280;28;20049;-90
2022/05/31 02:44:23;;;;;;;0.00;0.00;;;7.70;99.90;;;;;;4998762;28;20087;-90
2022/05/31 02:46:49;;;;;;;0.20;0.20;;;7.30;99.90;;;;;;4998588;28;20499;-90
2022/05/31 02:49:16;;;;;;;0.10;0.10;;;7.60;99.90;;;;;;5015101;28;20034;-90
2022/05/31 02:51:45;;;;;;;0.10;0.10;;;7.40;99.90;;;;;;5014779;28;20523;-90
2022/05/31 02:54:14;;;;;;;0.00;0.00;;;7.40;99.90;;;;;;5014791;28;20099;-90
2022/05/31 02:56:40;;;;;;;0.10;0.10;;;7.40;99.90;;;;;;5014931;28;20397;-90
2022/05/31 02:59:06;;;;;;;0.00;0.00;;;8.10;99.90;;;;;;4998712;28;20041;-86
2022/05/31 03:01:35;;;;;;;0.10;0.10;;;7.40;99.90;;;;;;5015025;28;20380;-85
2022/05/31 03:04:01;;;;;;;0.20;0.20;;;7.40;99.90;;;;;;5014940;28;20137;-86
2022/05/31 03:06:26;;;;;;;0.10;0.10;;;7.60;99.90;;;;;;4998586;28;20117;-86
2022/05/31 03:08:52;;;;;;;1.55;1.17;;;7.40;99.90;;;;;;4998825;28;20121;-86
2022/05/31 03:11:37;;;;;;;0.10;0.10;;;7.40;99.90;;;;;;4998718;28;20034;-86
2022/05/31 03:14:23;;;;;;;0.10;0.10;;;7.40;99.90;;;;;;4995243;28;20125;-85
2022/05/31 03:16:54;;;;;;;0.10;0.10;;;7.50;99.90;;;;;;4998045;28;20034;-86
2022/05/31 03:19:25;;;;;;;0.20;0.20;;;7.50;99.90;;;;;;5031558;28;20041;-86
2022/05/31 03:21:59;;;;;;;0.00;0.00;;;8.60;99.90;;;;;;4998231;28;20042;-85
2022/05/31 03:24:34;;;;;;;0.10;0.10;;;8.00;99.90;;;;;;4998143;28;20046;-86
2022/05/31 03:27:03;;;;;;;0.00;0.00;;;8.30;99.90;;;;;;5014859;28;20129;-85
2022/05/31 03:29:29;;;;;;;0.00;0.00;;;7.60;99.90;;;;;;5014223;28;20427;-85
2022/05/31 03:31:55;;;;;;;0.00;0.00;;;7.60;99.90;;;;;;5014203;28;20041;-86
2022/05/31 03:34:21;;;;;;;0.30;0.30;;;7.60;99.90;;;;;;4997619;28;20524;-85
2022/05/31 03:36:47;;;;;;;0.10;0.10;;;7.60;99.90;;;;;;4966326;28;20140;-86
2022/05/31 03:39:13;;;;;;;0.20;0.20;;;7.70;99.90;;;;;;5013818;28;20385;-86
2022/05/31 03:41:38;;;;;;;0.00;0.00;;;7.70;99.90;;;;;;4978918;28;20108;-86
2022/05/31 03:44:05;;;;;;;0.00;0.00;;;7.70;99.90;;;;;;4978460;28;20480;-86
2022/05/31 03:46:30;;;;;;;0.10;0.10;;;7.70;99.90;;;;;;5011385;28;20050;-86
2022/05/31 03:48:57;;;;;;;0.40;0.40;;;7.80;99.90;;;;;;5000384;28;20038;-86
2022/05/31 03:51:23;;;;;;;0.40;0.40;;;7.80;99.90;;;;;;4997259;28;20060;-86
2022/05/31 03:53:49;;;;;;;0.00;0.00;;;7.80;99.90;;;;;;4981739;28;20046;-86
2022/05/31 03:56:14;;;;;;;2.50;0.65;;;7.80;99.90;;;;;;4998106;28;20420;-86
2022/05/31 03:58:40;;;;;;;0.13;0.13;;;7.80;99.90;;;;;;5013554;28;20042;-86
2022/05/31 04:01:06;;;;;;;0.00;0.00;;;7.90;99.90;;;;;;4996787;28;20045;-86
2022/05/31 04:03:32;;;;;;;0.10;0.10;;;7.90;99.90;;;;;;5029713;28;20041;-86
2022/05/31 04:05:58;;;;;;;0.10;0.10;;;7.90;99.90;;;;;;5029714;28;20038;-86
2022/05/31 04:08:24;;;;;;;0.10;0.10;;;7.90;99.90;;;;;;4995017;28;20100;-86
2022/05/31 04:10:51;;;;;;;0.10;0.10;;;8.00;99.90;;;;;;5013663;28;20037;-86
2022/05/31 04:13:17;;;;;;;0.00;0.00;;;8.00;99.90;;;;;;5013754;28;20076;-86
2022/05/31 04:15:43;;;;;;;0.10;0.10;;;8.10;99.90;;;;;;5013962;28;20133;-86
2022/05/31 04:18:09;;;;;;;0.10;0.10;;;8.10;99.90;;;;;;5013515;28;20052;-86
2022/05/31 04:20:41;;;;;;;0.20;0.20;;;8.10;99.90;;;;;;5013393;28;20042;-86
2022/05/31 04:26:02;;;;;;;0.10;0.10;;;8.20;99.90;;;;;;4999500;28;20038;-86
2022/05/31 04:28:27;;;;;;;0.10;0.10;;;8.30;99.90;;;;;;5029804;28;20087;-86
2022/05/31 04:30:53;;;;;;;0.13;0.13;;;8.30;99.90;;;;;;4986656;28;20178;-86
2022/05/31 04:33:19;;;;;;;0.00;0.00;;;8.30;99.90;;;;;;4977509;28;20035;-86
2022/05/31 04:35:44;;;;;;;0.10;0.10;;;8.40;99.90;;;;;;4982104;28;20073;-86
2022/05/31 04:38:10;;;;;;;0.00;0.00;;;8.40;99.90;;;;;;5012951;28;20053;-86
2022/05/31 04:40:39;;;;;;;0.00;0.00;;;8.50;99.90;;;;;;4996436;28;20454;-86
2022/05/31 04:43:05;;;;;;;0.10;0.10;;;8.50;99.90;;;;;;5013050;28;20065;-86
2022/05/31 04:45:31;;;;;;;0.00;0.00;;;8.50;99.90;;;;;;5012263;28;20038;-86
2022/05/31 04:47:57;;;;;;;0.10;0.10;;;8.60;99.90;;;;;;5013108;28;20514;-85
2022/05/31 04:50:25;;;;;;;0.10;0.10;;;8.60;99.90;;;;;;5012510;28;20412;-85
2022/05/31 04:52:51;;;;;;;0.00;0.00;;;8.70;99.90;;;;;;4996784;28;20492;-86
2022/05/31 04:55:17;;;;;;;0.00;0.00;;;8.90;99.90;;;;;;5015151;28;20045;-85
2022/05/31 04:57:42;;;;;;;0.08;0.08;;;8.80;99.90;;;;;;4996410;28;20078;-86
2022/05/31 05:00:09;;;;;;;0.05;0.05;;;8.90;99.90;;;;;;4996377;28;20466;-86
2022/05/31 05:02:34;;;;;;;0.05;0.05;;;9.00;99.90;;;;;;5012484;28;20046;-86
2022/05/31 05:05:00;;;;;;;0.00;0.00;;;9.00;99.90;;;;;;4996504;28;20049;-86
2022/05/31 05:07:30;;;;;;;0.10;0.10;;;9.10;99.90;;;;;;4996670;28;20396;-86
2022/05/31 05:09:55;;;;;;;0.35;0.20;;;9.10;99.90;;;;;;5012706;28;20125;-86
2022/05/31 05:12:21;;;;;;;0.55;0.55;;;9.20;99.90;;;;;;4996320;28;20180;-86
2022/05/31 05:14:47;;;;;;;0.40;0.32;;;9.30;99.90;;;;;;5012329;28;20100;-86
2022/05/31 05:17:13;;;;;;;0.08;0.08;;;9.40;99.90;;;;;;5028230;28;20033;-86
2022/05/31 05:19:39;;;;;;;0.00;0.00;;;9.40;99.90;;;;;;5011695;28;20072;-86
2022/05/31 05:22:05;;;;;;;0.10;0.10;;;9.50;99.90;;;;;;4995019;28;20484;-86
2022/05/31 05:24:31;;;;;;;0.00;0.00;;;;;;;;;;5028596;28;20146;-86
2022/05/31 05:26:57;;;;;;;0.08;0.08;;;;;;;;;;4988081;28;20042;-86
2022/05/31 05:32:08;;;;;;;0.20;0.20;;;;;;;;;;4998620;28;20077;-87
2022/05/31 05:34:34;;;;;;;0.17;0.17;;;;;;;;;;4995834;28;20041;-87
2022/05/31 05:37:00;;;;;;;0.05;0.05;;;;;;;;;;4996137;28;20045;-87
2022/05/31 05:39:27;;;;;;;0.20;0.20;;;;;;;;;;4996203;28;20141;-87
2022/05/31 05:41:53;;;;;;;0.20;0.20;;;;;;;;;;4995883;28;20045;-87
2022/05/31 05:44:19;;;;;;;0.40;0.40;;;;;;;;;;4996144;28;20448;-87
2022/05/31 05:46:45;;;;;;;0.20;0.20;;;;;;;;;;4996026;28;20042;-87
2022/05/31 05:49:11;;;;;;;0.05;0.05;;;;;;;;;;4996200;28;20104;-87
2022/05/31 05:51:37;;;;;;;0.10;0.10;;;;;;;;;;5012067;28;20050;-87
2022/05/31 05:54:03;;;;;;;0.00;0.00;;;;;;;;;;4995671;28;20077;-87
2022/05/31 05:56:30;;;;;;;0.00;0.00;;;;;;;;;;5028722;28;20034;-87
2022/05/31 05:58:56;;;;;;;0.00;0.00;;;;;;;;;;4999436;28;20074;-87
2022/05/31 06:01:22;;;;;;;0.10;0.10;;;;;;;;;;5032646;28;20449;-87
2022/05/31 06:03:50;;;;;;;0.00;0.00;;;;;;;;;;5039167;22;20069;-84
2022/05/31 06:06:17;;;;;;;0.98;0.52;;;12.10;99.90;;;;;;5012953;28;20153;-85
2022/05/31 06:08:45;;;;;;;0.20;0.20;;;11.90;99.90;;;;;;4976372;28;20042;-85
2022/05/31 06:11:22;;;;;;;0.20;0.20;;;12.30;99.90;;;;;;4994059;28;20043;-85
2022/05/31 06:13:56;;;;;;;0.00;0.00;;;12.80;99.90;;;;;;5013947;28;20620;-85
2022/05/31 06:16:26;;;;;;;0.00;0.00;;;13.10;99.90;;;;;;4989239;28;20388;-86
2022/05/31 06:19:16;;;;;;;0.10;0.10;;;13.10;99.90;;;;;;4963986;28;20115;-86
2022/05/31 06:21:43;;;;;;;0.22;0.22;;;12.90;99.90;;;;;;4979452;28;20153;-86
2022/05/31 06:24:09;;;;;;;0.30;0.30;;;12.80;99.90;;;;;;4982835;28;20038;-86
2022/05/31 06:26:35;;;;;;;0.40;0.40;;;12.70;99.90;;;;;;4998562;28;20092;-86
2022/05/31 06:29:03;;;;;;;1.92;0.35;;;12.70;99.90;;;;;;4998945;28;20041;-86
2022/05/31 06:31:29;;;;;;;0.00;0.00;;;12.80;99.90;;;;;;4998850;28;20388;-86
2022/05/31 06:33:55;;;;;;;0.17;0.17;;;12.90;99.90;;;;;;4999214;28;20038;-85
2022/05/31 06:36:21;;;;;;;0.10;0.10;;;13.00;99.90;;;;;;4998427;28;20117;-84
2022/05/31 06:38:46;;;;;;;0.15;0.15;;;13.10;99.90;;;;;;4998553;28;20116;-84
2022/05/31 06:41:13;;;;;;;0.60;0.57;;;13.30;99.90;;;;;;4978039;28;20092;-83
2022/05/31 06:43:39;;;;;;;0.05;0.05;;;13.30;99.90;;;;;;4982113;28;20057;-83
2022/05/31 06:46:07;;;;;;;0.20;0.20;;;13.50;99.90;;;;;;4986733;28;20428;-83
2022/05/31 06:48:33;;;;;;;1.08;0.45;;;13.70;99.90;;;;;;4995271;28;20120;-83
2022/05/31 06:51:07;;;;;;;0.10;0.10;;;13.90;99.90;;;;;;4979856;28;20041;-82
2022/05/31 06:58:52;;;;;;;0.00;0.00;;;15.40;99.90;;;;;;4995405;28;20519;-85
2022/05/31 07:01:19;;;;;;;0.10;0.10;;;15.40;99.90;;;;;;4996625;28;20080;-85
2022/05/31 07:03:45;;;;;;;0.73;0.40;;;15.30;99.90;;;;;;4996055;28;20038;-85
2022/05/31 07:06:11;;;;;;;0.30;0.30;;;15.10;99.90;;;;;;4997832;28;20052;-85
2022/05/31 07:08:36;;;;;;;0.10;0.10;;;14.70;99.90;;;;;;4997374;28;20030;-85
2022/05/31 07:11:05;;;;;;;0.00;0.00;;;14.60;99.90;;;;;;4998195;28;20068;-86
2022/05/31 07:13:31;;;;;;;0.20;0.20;;;14.40;99.90;;;;;;4966081;28;20038;-86
2022/05/31 07:16:00;;;;;;;0.17;0.17;;;14.30;99.90;;;;;;4981786;28;20045;-86
2022/05/31 07:18:25;;;;;;;0.52;0.30;;;14.30;99.90;;;;;;4998353;28;20123;-85
2022/05/31 07:20:51;;;;;;;0.30;0.30;;;14.20;99.90;;;;;;4981829;28;20500;-86
2022/05/31 07:23:17;;;;;;;0.20;0.20;;;14.40;99.90;;;;;;4962114;28;20042;-86
2022/05/31 07:25:43;;;;;;;0.08;0.08;;;14.50;99.90;;;;;;4980070;28;20076;-84
2022/05/31 07:28:09;;;;;;;0.10;0.10;;;14.50;99.90;;;;;;4981777;28;20042;-86
2022/05/31 07:30:35;;;;;;;0.20;0.20;;;14.60;99.90;;;;;;4981845;28;20041;-85
2022/05/31 07:33:00;;;;;;;0.00;0.00;;;14.70;99.90;;;;;;4965753;28;20029;-85
2022/05/31 07:35:27;;;;;;;0.20;0.20;;;14.80;99.90;;;;;;4997587;28;20515;-86
2022/05/31 07:37:53;;;;;;;0.10;0.10;;;15.30;99.90;;;;;;4961671;28;20042;-86
2022/05/31 07:40:19;;;;;;;0.10;0.10;;;16.30;99.90;;;;;;4987655;28;20440;-85
2022/05/31 07:42:44;;;;;;;0.00;0.00;;;17.10;99.90;;;;;;4981788;28;20133;-84
2022/05/31 07:45:11;;;;;;;0.17;0.17;;;18.90;99.90;;;;;;4997561;28;20080;-85
2022/05/31 07:47:37;;;;;;;0.28;0.28;;;20.20;99.90;;;;;;4980743;28;20038;-85
2022/05/31 07:50:03;;;;;;;0.05;0.05;;;21.50;97.80;;;;;;4980558;28;20399;-85
2022/05/31 07:52:29;;;;;;;0.30;0.30;;;22.30;96.10;;;;;;4989392;28;20044;-85
2022/05/31 07:54:55;;;;;;;0.10;0.10;;;22.50;95.30;;;;;;4981298;28;20037;-85
2022/05/31 08:00:05;;;;;;;0.38;0.38;;;21.70;93.30;;;;;;4996930;28;20050;-84
2022/05/31 08:02:30;;;;;;;0.22;0.22;;;21.90;94.80;;;;;;4979947;28;20042;-84
2022/05/31 08:04:56;;;;;;;0.00;0.00;;;22.50;92.70;;;;;;4979389;28;20046;-85
2022/05/31 08:07:22;;;;;;;0.08;0.08;;;23.10;90.70;;;;;;4998817;28;20050;-84
2022/05/31 08:09:48;;;;;;;0.30;0.20;;;23.80;90.20;;;;;;4981010;28;20042;-85
2022/05/31 08:12:13;;;;;;;0.05;0.05;;;24.50;89.00;;;;;;4996191;28;20042;-85
2022/05/31 08:14:39;;;;;;;0.30;0.30;;;25.50;90.00;;;;;;4973266;28;20157;-85
2022/05/31 08:17:06;;;;;;;0.50;0.20;;;25.80;80.90;;;;;;4976677;28;20033;-86
2022/05/31 08:19:32;;;;;;;0.20;0.20;;;25.80;77.80;;;;;;4993036;28;20042;-86
2022/05/31 08:21:57;;;;;;;0.03;0.03;;;25.80;77.20;;;;;;4996103;28;20084;-86
2022/05/31 08:24:24;;;;;;;0.03;0.03;;;26.10;78.80;;;;;;4978114;28;20421;-86
2022/05/31 08:26:51;;;;;;;0.20;0.20;;;26.50;74.50;;;;;;4978039;28;20049;-86
2022/05/31 08:29:17;;;;;;;0.10;0.10;;;26.30;72.90;;;;;;4980920;28;20042;-86
2022/05/31 08:31:44;;;;;;;0.00;0.00;;;26.20;72.10;;;;;;4992450;28;20045;-86
2022/05/31 08:34:10;;;;;;;0.00;0.00;;;26.30;72.00;;;;;;4994454;28;20038;-88
2022/05/31 08:36:36;;;;;;;0.10;0.10;;;26.20;70.30;;;;;;4995662;28;20476;-87
2022/05/31 08:39:02;;;;;;;0.00;0.00;;;26.20;71.60;;;;;;4980528;28;20044;-89
2022/05/31 08:41:37;;;;;;;0.10;0.10;;;26.60;71.00;;;;;;4980122;28;20037;-88
2022/05/31 08:44:12;;;;;;;0.77;0.73;;;26.70;67.40;;;;;;4995178;28;20045;-87
2022/05/31 08:46:56;;;;;;;0.00;0.00;;;26.80;67.90;;;;;;4979344;28;20284;-86
2022/05/31 08:53:16;;;;;;;0.10;0.10;;;27.50;64.80;;;;;;4990817;28;20049;-89
2022/05/31 08:58:47;;;;;;;0.10;0.10;;;27.40;62.20;;;;;;4995853;28;20500;-90
2022/05/31 09:01:24;;;;;;;0.20;0.20;;;27.80;64.60;;;;;;4980900;28;20132;-90
2022/05/31 09:04:21;;;;;;;0.20;0.20;;;27.80;62.70;;;;;;4995777;28;20073;-90
2022/05/31 09:06:54;;;;;;;0.25;0.25;;;27.80;64.40;;;;;;4989842;28;20060;-89
2022/05/31 09:09:30;;;;;;;0.10;0.10;;;25.80;63.00;;;;;;4996031;28;20049;-89
2022/05/31 09:12:24;;;;;;;;;;;24.30;64.40;;;;;;4995897;28;20042;-89
2022/05/31 09:14:57;;;;;;;0.10;0.10;;;23.70;65.70;;;;;;4996371;28;20295;-88
2022/05/31 09:17:38;;;;;;;0.25;0.25;;;22.90;66.40;;;;;;4979975;28;20373;-88
2022/05/31 09:20:33;;;;;;;0.30;0.30;;;22.90;68.40;;;;;;4976623;28;20035;-88
2022/05/31 09:22:59;;;;;;;0.43;0.43;;;22.30;66.70;;;;;;4996054;28;20107;-86
2022/05/31 09:25:27;;;;;;;0.00;0.00;;;21.60;69.50;;;;;;4995094;28;20070;-84
2022/05/31 09:27:53;;;;;;;0.10;0.10;;;20.90;71.00;;;;;;4995902;28;20046;-88
2022/05/31 09:30:31;;;;;;;0.15;0.15;;;20.30;70.60;;;;;;4979652;28;20041;-87
2022/05/31 09:33:19;;;;;;;0.43;0.43;;;19.80;71.90;;;;;;5000753;28;20049;-87
2022/05/31 09:36:18;;;;;;;0.10;0.10;;;19.40;72.60;;;;;;5000628;28;20041;-87
2022/05/31 09:39:10;;;;;;;0.00;0.00;;;19.10;73.20;;;;;;4985903;28;20037;-86
2022/05/31 09:41:39;;;;;;;0.10;0.10;;;19.20;73.60;;;;;;5005051;28;20042;-86
2022/05/31 09:44:17;;;;;;;0.10;0.10;;;19.10;73.80;;;;;;5001083;28;20557;-84
2022/05/31 09:46:51;;;;;;;0.10;0.10;;;19.00;72.40;;;;;;5014675;28;20491;-84
2022/05/31 09:49:23;;;;;;;0.45;0.45;;;18.80;72.30;;;;;;5000215;28;20040;-84
2022/05/31 09:51:49;;;;;;;1.65;1.55;;;18.60;72.70;;;;;;4999127;28;20134;-84
2022/05/31 09:57:28;;;;;;;0.30;0.30;;;18.50;75.40;;;;;;4970126;28;20034;-86
2022/05/31 10:00:04;;;;;;;0.22;0.22;;;18.40;73.40;;;;;;4985735;28;20042;-86
2022/05/31 10:02:32;;;;;;;0.10;0.10;;;18.50;77.50;;;;;;5000234;28;20048;-86
2022/05/31 10:05:20;;;;;;;0.15;0.15;;;18.80;74.70;;;;;;4998546;28;20054;-86
2022/05/31 10:07:47;;;;;;;0.10;0.10;;;19.10;74.50;;;;;;4995602;28;20073;-86
2022/05/31 10:10:15;;;;;;;0.13;0.13;;;19.30;72.80;;;;;;4982019;28;20085;-85
2022/05/31 10:12:55;;;;;;;1.75;1.00;;;19.40;70.80;;;;;;4998777;28;20038;-87
2022/05/31 10:15:37;;;;;;;0.20;0.20;;;19.50;70.70;;;;;;4981979;28;20057;-83
2022/05/31 10:18:05;;;;;;;0.32;0.32;;;19.90;72.80;;;;;;4998623;28;20046;-83
2022/05/31 10:20:31;;;;;;;0.20;0.20;;;20.30;72.90;;;;;;4981918;28;20117;-83
2022/05/31 10:23:04;;;;;;;0.47;0.47;;;20.70;72.00;;;;;;4997413;28;20137;-83
2022/05/31 10:25:33;;;;;;;0.00;0.00;;;21.10;72.00;;;;;;4998492;28;20049;-83
2022/05/31 10:28:04;;;;;;;0.13;0.10;;;21.40;69.30;;;;;;4982302;28;20505;-84
2022/05/31 10:30:31;;;;;;;0.40;0.30;;;21.50;70.60;;;;;;4998505;28;20045;-87
2022/05/31 10:33:26;;;;;;;0.20;0.20;;;21.50;72.10;;;;;;4998497;28;20069;-87
2022/05/31 10:36:13;;;;;;;1.88;1.13;;;21.60;71.70;;;;;;4982363;28;20046;-89
2022/05/31 10:38:41;;;;;;;0.13;0.13;;;21.30;69.30;;;;;;4981474;28;20412;-88
2022/05/31 10:41:10;;;;;;;0.10;0.10;;;21.20;71.30;;;;;;4998204;28;20133;-88
2022/05/31 10:44:09;;;;;;;0.00;0.00;;;21.10;69.40;;;;;;4996695;28;20077;-88
2022/05/31 10:46:36;;;;;;;0.25;0.25;;;20.80;69.40;;;;;;4985307;28;20532;-83
2022/05/31 10:49:20;;;;;;;0.43;0.43;;;20.50;71.50;;;;;;4961846;28;20393;-83
2022/05/31 10:51:56;;;;;;;0.10;0.10;;;20.30;74.20;;;;;;4979212;28;20046;-83
2022/05/31 10:54:46;;;;;;;0.85;0.52;;;19.70;72.10;;;;;;4994077;28;20053;-83
2022/05/31 10:57:30;;;;;;;0.10;0.10;;;19.70;73.70;;;;;;4975959;28;20050;-83
2022/05/31 11:00:08;;;;;;;0.30;0.30;;;19.40;71.40;;;;;;4977363;28;20124;-83
2022/05/31 11:02:51;;;;;;;0.15;0.15;;;19.20;73.60;;;;;;4994791;28;20105;-85
2022/05/31 11:05:25;;;;;;;0.70;0.70;;;19.10;74.70;;;;;;4993625;28;20069;-85
2022/05/31 11:11:32;;;;;;;0.88;0.50;;;20.60;72.50;;;;;;4993826;28;20054;-86
2022/05/31 11:14:07;;;;;;;0.45;0.40;;;21.00;73.80;;;;;;4994702;28;20049;-86
2022/05/31 11:16:52;;;;;;;0.10;0.10;;;22.60;69.80;;;;;;4994533;28;20043;-87
2022/05/31 11:19:36;;;;;;;0.63;0.45;;;23.10;66.10;;;;;;4995373;28;20043;-86
2022/05/31 11:22:20;;;;;;;0.55;0.55;;;22.90;69.20;;;;;;4972783;28;20049;-85
2022/05/31 11:25:04;;;;;;;0.10;0.10;;;22.60;63.10;;;;;;4977456;28;20038;-85
2022/05/31 11:28:04;;;;;;;0.13;0.13;;;22.90;66.40;;;;;;4994799;28;20042;-86
2022/05/31 11:30:50;;;;;;;0.05;0.05;;;23.00;65.40;;;;;;4994840;28;20046;-86
2022/05/31 11:33:22;;;;;;;0.10;0.10;;;22.60;65.30;;;;;;4994536;28;20070;-86
2022/05/31 11:36:12;;;;;;;0.30;0.30;;;22.30;64.60;;;;;;4993179;28;20042;-86
2022/05/31 11:38:55;;;;;;;0.00;0.00;;;21.90;66.40;;;;;;4978750;28;20155;-86
2022/05/31 11:41:42;;;;;;;0.28;0.20;;;21.50;65.90;;;;;;4994534;28;20050;-86
2022/05/31 11:44:35;;;;;;;0.10;0.10;;;;;;;;;;4978284;28;20045;-86
2022/05/31 11:47:29;;;;;;;0.55;0.55;;;20.30;67.20;;;;;;4979072;28;20405;-86
2022/05/31 11:50:20;;;;;;;0.60;0.60;;;20.30;68.20;;;;;;4978098;28;20038;-86
2022/05/31 11:52:55;;;;;;;0.20;0.20;;;19.40;68.90;;;;;;4994953;28;20038;-86
2022/05/31 11:55:46;;;;;;;0.20;0.20;;;19.40;69.30;;;;;;4992689;28;20049;-86
2022/05/31 11:58:30;;;;;;;0.20;0.20;;;19.30;70.50;;;;;;5004806;28;20096;-86
2022/05/31 12:01:09;;;;;;;0.20;0.20;;;19.30;72.20;;;;;;4974686;28;20038;-85
2022/05/31 12:03:40;;;;;;;0.40;0.40;;;19.30;71.10;;;;;;4976907;28;20100;-85
2022/05/31 12:06:16;;;;;;;0.80;0.80;;;19.40;71.20;;;;;;4992887;28;20556;-85
2022/05/31 12:08:58;;;;;;;0.20;0.20;;;19.50;72.40;;;;;;4974887;28;20039;-86
2022/05/31 12:11:36;;;;;;;0.10;0.10;;;19.30;71.70;;;;;;4982364;28;20038;-86
2022/05/31 12:14:04;;;;;;;0.30;0.30;;;19.20;73.00;;;;;;4978197;28;20362;-86
2022/05/31 12:16:30;;;;;;;0.00;0.00;;;19.20;73.60;;;;;;4970235;28;20050;-86
2022/05/31 12:19:07;;;;;;;0.20;0.20;;;19.10;73.00;;;;;;4977551;28;20129;-86
2022/05/31 12:21:39;;;;;;;0.08;0.08;;;19.00;71.80;;;;;;4977968;28;20060;-86
2022/05/31 12:24:17;;;;;;;0.55;0.40;;;18.70;71.00;;;;;;5009841;28;20050;-86
2022/05/31 12:26:56;;;;;;;0.20;0.20;;;18.40;72.50;;;;;;4977434;28;20046;-86
2022/05/31 12:29:31;;;;;;;0.32;0.32;;;18.20;74.70;;;;;;4993966;28;20039;-83
2022/05/31 12:32:24;;;;;;;0.00;0.00;;;17.90;73.80;;;;;;4994141;28;20488;-83
2022/05/31 12:34:50;;;;;;;0.08;0.08;;;17.70;74.40;;;;;;4993412;28;20130;-83
2022/05/31 12:37:16;;;;;;;0.43;0.43;;;17.60;75.70;;;;;;4976075;28;20124;-82
2022/05/31 12:39:44;;;;;;;0.15;0.15;;;17.30;74.00;;;;;;4992121;28;20050;-83
2022/05/31 12:42:13;;;;;;;1.75;1.65;;;17.20;76.00;;;;;;4977178;28;20042;-86
2022/05/31 12:44:40;;;;;;;0.43;0.43;;;17.00;74.30;;;;;;4993573;28;20043;-87
2022/05/31 12:47:09;;;;;;;0.10;0.10;;;16.90;75.30;;;;;;4993568;28;20054;-87
2022/05/31 12:49:46;;;;;;;0.10;0.10;;;16.90;75.50;;;;;;4992495;28;20038;-87
2022/05/31 12:52:38;;;;;;;0.20;0.17;;;16.90;76.30;;;;;;4976902;28;20069;-87
2022/05/31 12:55:09;;;;;;;0.30;0.30;;;16.90;76.10;;;;;;4993050;28;20043;-87
2022/05/31 13:00:26;;;;;;;0.20;0.10;;;17.00;77.70;;;;;;4993052;28;20069;-86
2022/05/31 13:02:54;;;;;;;0.00;0.00;;;17.10;76.80;;;;;;4992127;28;20095;-87
2022/05/31 13:06:00;;;;;;;0.10;0.10;;;17.20;77.10;;;;;;4976863;28;20129;-87
2022/05/31 13:08:59;;;;;;;2.72;1.27;;;17.40;77.10;;;;;;4981787;28;20102;-87
2022/05/31 13:20:00;;;;;;;0.00;0.00;;;18.20;76.10;;;;;;4993015;28;20145;-86
2022/05/31 13:22:26;;;;;;;0.10;0.10;;;18.50;75.90;;;;;;4970004;28;20045;-85
2022/05/31 13:25:04;;;;;;;0.13;0.13;;;18.70;75.60;;;;;;4961377;28;20050;-86
2022/05/31 13:27:35;;;;;;;0.25;0.25;;;18.80;74.50;;;;;;4992576;28;20039;-85
2022/05/31 13:30:21;;;;;;;0.50;0.50;;;18.90;74.10;;;;;;4992261;28;20042;-86
2022/05/31 13:32:47;;;;;;;0.10;0.10;;;19.00;73.40;;;;;;4991592;28;20092;-87
2022/05/31 13:35:32;;;;;;;0.40;0.40;;;19.10;74.10;;;;;;4992519;28;20038;-87
2022/05/31 13:38:22;;;;;;;0.15;0.15;;;19.20;72.70;;;;;;4992114;28;20045;-87
2022/05/31 13:40:52;;;;;;;0.10;0.10;;;19.30;72.80;;;;;;4992301;28;20046;-87
2022/05/31 13:43:23;;;;;;;0.35;0.28;;;19.50;72.60;;;;;;4976615;28;20085;-87
2022/05/31 13:45:56;;;;;;;0.05;0.05;;;19.60;71.40;;;;;;4991447;28;20110;-85
2022/05/31 13:48:25;;;;;;;0.03;0.03;;;19.80;71.70;;;;;;4992346;28;20047;-87
2022/05/31 13:51:17;;;;;;;0.20;0.20;;;20.00;70.90;;;;;;4991962;28;20484;-86
2022/05/31 13:53:44;;;;;;;0.10;0.10;;;20.00;70.90;;;;;;4976689;28;20125;-86
2022/05/31 13:56:16;;;;;;;0.17;0.17;;;20.10;71.50;;;;;;4991806;28;20050;-85
2022/05/31 13:58:42;;;;;;;0.10;0.10;;;20.30;73.40;;;;;;4985348;28;20038;-86